createdAt,value
2022-08-05T00:00:20.403Z,101109.94
2022-08-05T00:02:51.486Z,101111.94
2022-08-05T00:06:02.985Z,101099.56
2022-08-05T00:08:32.588Z,101099.97
2022-08-05T00:11:00.369Z,101106.34
2022-08-05T00:13:38.208Z,101101.16
2022-08-05T00:16:10.867Z,101088.81
2022-08-05T00:18:40.008Z,101093.59
2022-08-05T00:21:09.818Z,101088.41
2022-08-05T00:23:45.731Z,101096.78
2022-08-05T00:26:16.583Z,101088.03
2022-08-05T00:28:45.788Z,101087.22
2022-08-05T00:31:13.808Z,101087.22
2022-08-05T00:34:54.484Z,101093.19
2022-08-05T00:37:11.705Z,101090.78
2022-08-05T00:39:15.361Z,101084.03
2022-08-05T00:41:55.093Z,101092.78
2022-08-05T00:44:30.904Z,101086.03
2022-08-05T00:47:02.071Z,101080.84
2022-08-05T00:49:32.807Z,101076.84
2022-08-05T00:52:00.798Z,101067.31
2022-08-05T00:54:30.089Z,101070.91
2022-08-05T00:56:57.558Z,101063.31
2022-08-05T00:59:24.786Z,101068.91
2022-08-05T01:01:52.006Z,101067.69
2022-08-05T01:04:20.140Z,101066.13
2022-08-05T01:06:54.954Z,101068.50
2022-08-05T01:09:22.834Z,101068.09
2022-08-05T01:11:52.354Z,101066.91
2022-08-05T01:14:46.015Z,101062.53
2022-08-05T01:17:40.274Z,101073.66
2022-08-05T01:20:14.116Z,101066.06
2022-08-05T01:22:46.881Z,101065.66
2022-08-05T01:25:40.106Z,101067.25
2022-08-05T01:28:42.844Z,101060.47
2022-08-05T01:31:16.488Z,101058.84
2022-08-05T01:33:56.648Z,101062.41
2022-08-05T01:36:29.692Z,101063.19
2022-08-05T01:39:01.211Z,101062.78
2022-08-05T01:41:33.835Z,101064.34
2022-08-05T01:44:02.501Z,101056.78
2022-08-05T01:46:42.767Z,101057.19
2022-08-05T01:49:24.155Z,101051.22
2022-08-05T01:52:01.354Z,101059.16
2022-08-05T01:54:46.041Z,101045.63
2022-08-05T01:58:10.897Z,101051.22
2022-08-05T02:00:11.942Z,101047.25
2022-08-05T02:02:54.905Z,101047.63
2022-08-05T02:05:23.911Z,101045.66
2022-08-05T02:08:00.383Z,101045.69
2022-08-05T02:10:51.306Z,101045.28
2022-08-05T02:13:36.435Z,101043.69
2022-08-05T02:16:30.675Z,101041.69
2022-08-05T02:19:01.439Z,101042.91
2022-08-05T02:21:43.361Z,101043.69
2022-08-05T02:24:19.486Z,101042.50
2022-08-05T02:27:00.541Z,101036.91
2022-08-05T02:29:58.864Z,101048.06
2022-08-05T02:32:31.608Z,101047.66
2022-08-05T02:35:14.108Z,101042.91
2022-08-05T02:37:53.800Z,101042.47
2022-08-05T02:40:23.164Z,101036.13
2022-08-05T02:42:54.085Z,101038.06
2022-08-05T02:45:25.276Z,101043.25
2022-08-05T02:48:07.389Z,101040.88
2022-08-05T02:50:46.824Z,101042.47
2022-08-05T02:53:19.457Z,101039.69
2022-08-05T02:55:59.584Z,101039.69
2022-08-05T02:58:28.871Z,101039.28
2022-08-05T03:01:01.842Z,101046.47
2022-08-05T03:03:33.726Z,101043.69
2022-08-05T03:06:54.785Z,101049.25
2022-08-05T03:09:07.769Z,101043.28
2022-08-05T03:11:55.351Z,101048.41
2022-08-05T03:14:22.527Z,101050.81
2022-08-05T03:16:49.805Z,101044.84
2022-08-05T03:19:34.082Z,101044.84
2022-08-05T03:22:04.849Z,101043.25
2022-08-05T03:24:47.288Z,101049.59
2022-08-05T03:27:19.279Z,101044.84
2022-08-05T03:30:08.111Z,101045.63
2022-08-05T03:32:34.991Z,101049.59
2022-08-05T03:35:04.524Z,101047.63
2022-08-05T03:37:46.629Z,101046.41
2022-08-05T03:40:15.554Z,101050.41
2022-08-05T03:42:52.884Z,101061.53
2022-08-05T03:45:21.575Z,101057.53
2022-08-05T03:47:50.963Z,101048.41
2022-08-05T03:50:18.481Z,101057.53
2022-08-05T03:55:00.072Z,101050.72
2022-08-05T03:56:10.875Z,101052.72
2022-08-05T03:58:47.233Z,101059.88
2022-08-05T04:01:18.566Z,101055.91
2022-08-05T04:04:09.769Z,101054.28
2022-08-05T04:06:38.119Z,101055.09
2022-08-05T04:09:10.379Z,101055.91
2022-08-05T04:11:47.713Z,101055.50
2022-08-05T04:14:29.541Z,101069.41
2022-08-05T04:16:59.956Z,101063.47
2022-08-05T04:19:28.965Z,101058.28
2022-08-05T04:22:08.506Z,101057.53
2022-08-05T04:24:44.480Z,101060.31
2022-08-05T04:27:13.743Z,101068.69
2022-08-05T04:29:41.760Z,101062.34
2022-08-05T04:32:09.856Z,101061.56
2022-08-05T04:34:42.632Z,101067.97
2022-08-05T04:37:10.844Z,101075.16
2022-08-05T04:39:38.043Z,101077.16
2022-08-05T04:42:06.876Z,101075.16
2022-08-05T04:44:33.978Z,101079.97
2022-08-05T04:47:08.899Z,101077.16
2022-08-05T04:50:03.002Z,101082.75
2022-08-05T04:52:27.798Z,101076.81
2022-08-05T04:54:56.910Z,101074.44
2022-08-05T04:57:28.422Z,101071.28
2022-08-05T04:59:58.471Z,101071.31
2022-08-05T05:02:42.010Z,101060.94
2022-08-05T05:05:16.813Z,101068.13
2022-08-05T05:07:56.466Z,101065.31
2022-08-05T05:10:29.598Z,101070.81
2022-08-05T05:12:57.417Z,101067.09
2022-08-05T05:15:56.422Z,101059.09
2022-08-05T05:18:16.585Z,101064.38
2022-08-05T05:20:58.767Z,101064.81
2022-08-05T05:23:25.951Z,101066.75
2022-08-05T05:25:53.153Z,101059.28
2022-08-05T05:28:20.701Z,101066.38
2022-08-05T05:30:49.777Z,101074.00
2022-08-05T05:33:17.713Z,101067.44
2022-08-05T05:35:50.823Z,101068.28
2022-08-05T05:38:22.843Z,101068.66
2022-08-05T05:40:56.177Z,101065.28
2022-08-05T05:43:54.454Z,101066.63
2022-08-05T05:46:16.156Z,101069.47
2022-08-05T05:48:47.996Z,101065.22
2022-08-05T05:51:23.522Z,101071.16
2022-08-05T05:53:57.883Z,101078.03
2022-08-05T05:56:31.514Z,101075.38
2022-08-05T05:59:03.199Z,101072.59
2022-08-05T06:01:37.811Z,101071.50
2022-08-05T06:04:12.168Z,101077.06
2022-08-05T06:06:43.115Z,101079.34
2022-08-05T06:09:17.667Z,101085.97
2022-08-05T06:11:59.623Z,101086.94
2022-08-05T06:14:33.302Z,101081.59
2022-08-05T06:17:53.093Z,101083.19
2022-08-05T06:19:56.649Z,101071.75
2022-08-05T06:22:33.327Z,101070.75
2022-08-05T06:25:24.692Z,101078.41
2022-08-05T06:28:10.657Z,101073.34
2022-08-05T06:30:36.742Z,101088.75
2022-08-05T06:33:03.972Z,101090.91
2022-08-05T06:36:07.538Z,101094.91
2022-08-05T06:38:18.504Z,101095.22
2022-08-05T06:41:07.906Z,101087.78
2022-08-05T06:43:57.957Z,101101.09
2022-08-05T06:46:30.341Z,101096.81
2022-08-05T06:48:59.894Z,101097.69
2022-08-05T06:51:29.974Z,101105.19
2022-08-05T06:54:02.071Z,101107.59
2022-08-05T06:56:33.342Z,101103.63
2022-08-05T06:59:09.712Z,101113.47
2022-08-05T07:01:40.873Z,101114.31
2022-08-05T07:04:10.019Z,101111.44
2022-08-05T07:06:37.329Z,101109.47
2022-08-05T07:09:05.007Z,101109.47
2022-08-05T07:11:36.920Z,101116.28
2022-08-05T07:14:28.972Z,101117.41
2022-08-05T07:18:01.975Z,101110.81
2022-08-05T07:22:43.088Z,101118.41
2022-08-05T07:25:23.621Z,101118.34
2022-08-05T07:28:07.236Z,101111.59
2022-08-05T07:30:38.448Z,101113.75
2022-08-05T07:33:16.510Z,101119.72
2022-08-05T07:36:02.115Z,101124.31
2022-08-05T07:38:42.641Z,101123.38
2022-08-05T07:41:35.006Z,101123.25
2022-08-05T07:44:04.166Z,101126.56
2022-08-05T07:46:33.801Z,101118.72
2022-08-05T07:49:05.824Z,101127.69
2022-08-05T07:51:48.538Z,101124.19
2022-08-05T07:54:26.424Z,101127.03
2022-08-05T07:57:01.603Z,101134.84
2022-08-05T07:59:42.056Z,101134.31
2022-08-05T08:02:16.608Z,101139.97
2022-08-05T08:04:49.399Z,101134.06
2022-08-05T08:07:22.792Z,101132.22
2022-08-05T08:09:52.259Z,101137.94
2022-08-05T08:12:37.350Z,101140.53
2022-08-05T08:15:15.818Z,101136.38
2022-08-05T08:17:52.355Z,101127.06
2022-08-05T08:21:00.515Z,101126.19
2022-08-05T08:23:59.798Z,101127.19
2022-08-05T08:26:00.329Z,101124.75
2022-08-05T08:28:36.530Z,101130.81
2022-08-05T08:31:08.060Z,101124.31
2022-08-05T08:33:37.901Z,101134.38
2022-08-05T08:36:38.496Z,101134.31
2022-08-05T08:38:57.798Z,101129.00
2022-08-05T08:41:51.119Z,101127.31
2022-08-05T08:45:18.731Z,101132.53
2022-08-05T08:47:22.181Z,101126.00
2022-08-05T08:50:22.299Z,101129.63
2022-08-05T08:52:57.054Z,101128.94
2022-08-05T08:56:01.979Z,101139.84
2022-08-05T08:58:12.943Z,101129.41
2022-08-05T09:00:42.463Z,101128.66
2022-08-05T09:03:11.555Z,101123.28
2022-08-05T09:06:08.628Z,101118.81
2022-08-05T09:08:30.104Z,101123.59
2022-08-05T09:10:58.763Z,101125.25
2022-08-05T09:13:31.466Z,101123.31
2022-08-05T09:15:59.794Z,101121.34
2022-08-05T09:18:27.732Z,101120.31
2022-08-05T09:20:57.311Z,101122.88
2022-08-05T09:23:28.793Z,101114.53
2022-08-05T09:26:20.612Z,101122.97
2022-08-05T09:28:49.670Z,101118.78
2022-08-05T09:31:43.796Z,101121.22
2022-08-05T09:34:07.303Z,101116.13
2022-08-05T09:36:54.767Z,101121.69
2022-08-05T09:39:41.148Z,101122.53
2022-08-05T09:42:17.477Z,101118.47
2022-08-05T09:44:56.157Z,101121.56
2022-08-05T09:47:34.953Z,101113.31
2022-08-05T09:50:04.379Z,101114.38
2022-08-05T09:52:34.170Z,101116.06
2022-08-05T09:55:57.337Z,101113.22
2022-08-05T09:57:58.442Z,101108.81
2022-08-05T10:00:26.483Z,101111.81
2022-08-05T10:02:54.952Z,101104.94
2022-08-05T10:05:28.424Z,101105.66
2022-08-05T10:08:36.630Z,101102.28
2022-08-05T10:10:54.288Z,101099.19
2022-08-05T10:13:47.475Z,101093.75
2022-08-05T10:16:41.796Z,101098.72
2022-08-05T10:19:23.813Z,101087.69
2022-08-05T10:21:59.872Z,101090.63
2022-08-05T10:24:28.605Z,101088.66
2022-08-05T10:27:00.599Z,101086.50
2022-08-05T10:30:41.348Z,101088.59
2022-08-05T10:33:01.293Z,101086.53
2022-08-05T10:35:05.442Z,101092.72
2022-08-05T10:37:44.379Z,101089.66
2022-08-05T10:40:32.095Z,101078.69
2022-08-05T10:43:16.477Z,101081.72
2022-08-05T10:45:56.515Z,101083.06
2022-08-05T10:48:52.357Z,101077.91
2022-08-05T10:51:28.879Z,101074.88
2022-08-05T10:54:29.930Z,101078.53
2022-08-05T10:56:57.782Z,101087.22
2022-08-05T11:00:02.043Z,101078.50
2022-08-05T11:02:38.422Z,101080.06
2022-08-05T11:05:09.520Z,101074.19
2022-08-05T11:08:02.816Z,101077.97
2022-08-05T11:10:33.371Z,101072.78
2022-08-05T11:13:01.436Z,101068.25
2022-08-05T11:16:01.392Z,101066.72
2022-08-05T11:18:35.481Z,101065.41
2022-08-05T11:21:11.262Z,101063.31
2022-08-05T11:24:04.418Z,101055.84
2022-08-05T11:26:32.963Z,101051.94
2022-08-05T11:29:13.357Z,101044.63
2022-08-05T11:31:56.231Z,101046.25
2022-08-05T11:34:51.032Z,101037.38
2022-08-05T11:38:30.297Z,101038.69
2022-08-05T11:41:56.223Z,101033.78
2022-08-05T11:44:40.247Z,101043.06
2022-08-05T11:47:11.181Z,101040.25
2022-08-05T11:49:42.758Z,101045.38
2022-08-05T11:52:11.347Z,101040.31
2022-08-05T11:54:41.374Z,101039.91
2022-08-05T11:57:24.807Z,101038.25
2022-08-05T11:59:54.556Z,101040.66
2022-08-05T12:02:31.451Z,101038.00
2022-08-05T12:05:08.049Z,101039.13
2022-08-05T12:08:08.179Z,101030.94
2022-08-05T12:10:38.621Z,101027.25
2022-08-05T12:13:16.920Z,101017.63
2022-08-05T12:15:49.842Z,101022.84
2022-08-05T12:18:32.767Z,101025.19
2022-08-05T12:21:31.946Z,101022.75
2022-08-05T12:24:08.419Z,101024.50
2022-08-05T12:26:44.096Z,101019.59
2022-08-05T12:29:26.341Z,101022.63
2022-08-05T12:31:58.579Z,101020.09
2022-08-05T12:34:32.966Z,101029.25
2022-08-05T12:37:17.359Z,101030.97
2022-08-05T12:39:51.301Z,101032.41
2022-08-05T12:42:21.025Z,101038.25
2022-08-05T12:44:48.695Z,101030.31
2022-08-05T12:47:31.943Z,101045.78
2022-08-05T12:50:03.698Z,101031.59
2022-08-05T12:52:42.435Z,101025.19
2022-08-05T12:55:32.464Z,101027.00
2022-08-05T12:58:49.782Z,101021.47
2022-08-05T13:02:02.921Z,101016.91
2022-08-05T13:03:41.388Z,101019.94
2022-08-05T13:06:19.985Z,101015.47
2022-08-05T13:08:51.643Z,101016.50
2022-08-05T13:12:01.920Z,101008.34
2022-08-05T13:14:36.325Z,101005.34
2022-08-05T13:17:25.036Z,101009.84
2022-08-05T13:20:03.122Z,101006.81
2022-08-05T13:22:30.746Z,101006.47
2022-08-05T13:25:05.815Z,101007.94
2022-08-05T13:27:39.347Z,100995.41
2022-08-05T13:30:35.644Z,100995.88
2022-08-05T13:32:57.461Z,100985.97
2022-08-05T13:35:42.603Z,100988.84
2022-08-05T13:38:20.071Z,100986.81
2022-08-05T13:40:57.615Z,100988.28
2022-08-05T13:43:24.764Z,100989.72
2022-08-05T13:46:12.458Z,100977.44
2022-08-05T13:48:58.711Z,100981.97
2022-08-05T13:51:40.142Z,100973.91
2022-08-05T13:54:12.012Z,100979.84
2022-08-05T13:56:45.282Z,100979.84
2022-08-05T13:59:23.797Z,100968.38
2022-08-05T14:01:59.122Z,100960.97
2022-08-05T14:04:53.882Z,100961.09
2022-08-05T14:07:26.113Z,100959.75
2022-08-05T14:10:19.254Z,100959.75
2022-08-05T14:12:57.011Z,100965.00
2022-08-05T14:16:06.275Z,100966.56
2022-08-05T14:18:17.547Z,100972.50
2022-08-05T14:20:48.174Z,100970.09
2022-08-05T14:23:23.758Z,100976.44
2022-08-05T14:25:58.718Z,100978.81
2022-08-05T14:28:28.514Z,100975.59
2022-08-05T14:30:57.864Z,100969.13
2022-08-05T14:33:25.276Z,100964.44
2022-08-05T14:35:54.369Z,100963.28
2022-08-05T14:38:27.692Z,100968.09
2022-08-05T14:41:05.980Z,100957.22
2022-08-05T14:44:02.318Z,100962.00
2022-08-05T14:46:29.023Z,100965.59
2022-08-05T14:48:59.662Z,100966.16
2022-08-05T14:51:31.923Z,100967.06
2022-08-05T14:54:25.925Z,100972.75
2022-08-05T14:56:47.533Z,100970.78
2022-08-05T14:59:16.739Z,100979.25
2022-08-05T15:01:48.012Z,100971.63
2022-08-05T15:04:22.378Z,100972.47
2022-08-05T15:06:51.541Z,100981.78
2022-08-05T15:09:51.224Z,100987.44
2022-08-05T15:12:09.489Z,100986.97
2022-08-05T15:14:48.437Z,100982.63
2022-08-05T15:17:47.025Z,100991.25
2022-08-05T15:20:09.757Z,100985.72
2022-08-05T15:22:44.849Z,100983.19
2022-08-05T15:25:14.323Z,100979.34
2022-08-05T15:27:43.038Z,100972.75
2022-08-05T15:30:19.554Z,100965.72
2022-08-05T15:32:47.117Z,100963.53
2022-08-05T15:35:14.893Z,100961.13
2022-08-05T15:38:32.353Z,100956.03
2022-08-05T15:40:58.614Z,100953.81
2022-08-05T15:43:20.563Z,100961.66
2022-08-05T15:46:00.790Z,100958.84
2022-08-05T15:48:29.050Z,100958.50
2022-08-05T15:50:57.008Z,100964.50
2022-08-05T15:53:26.607Z,100961.69
2022-08-05T15:56:09.080Z,100953.28
2022-08-05T15:58:40.775Z,100955.25
2022-08-05T16:01:16.331Z,100943.25
2022-08-05T16:03:50.865Z,100942.22
2022-08-05T16:06:19.932Z,100944.25
2022-08-05T16:08:51.132Z,100946.25
2022-08-05T16:11:40.135Z,100937.38
2022-08-05T16:14:09.140Z,100930.59
2022-08-05T16:16:36.581Z,100919.16
2022-08-05T16:19:04.466Z,100920.78
2022-08-05T16:21:58.449Z,100921.78
2022-08-05T16:24:40.407Z,100920.94
2022-08-05T16:27:07.378Z,100924.25
2022-08-05T16:29:37.073Z,100914.47
2022-08-05T16:32:04.661Z,100926.16
2022-08-05T16:34:31.862Z,100920.09
2022-08-05T16:36:59.212Z,100913.06
2022-08-05T16:40:05.991Z,100913.53
2022-08-05T16:42:18.498Z,100913.28
2022-08-05T16:44:57.101Z,100919.16
2022-08-05T16:47:35.961Z,100913.28
2022-08-05T16:50:10.474Z,100920.81
2022-08-05T16:52:37.885Z,100923.72
2022-08-05T16:55:05.384Z,100919.69
2022-08-05T16:57:53.109Z,100930.91
2022-08-05T17:00:34.109Z,100943.69
2022-08-05T17:03:03.645Z,100935.84
2022-08-05T17:05:32.121Z,100936.78
2022-08-05T17:07:59.281Z,100936.09
2022-08-05T17:10:30.470Z,100936.09
2022-08-05T17:12:58.377Z,100941.72
2022-08-05T17:15:48.010Z,100938.22
2022-08-05T17:18:14.224Z,100943.63
2022-08-05T17:20:42.311Z,100944.56
2022-08-05T17:24:04.636Z,100944.72
2022-08-05T17:25:58.917Z,100947.69
2022-08-05T17:28:26.432Z,100945.72
2022-08-05T17:30:56.265Z,100950.50
2022-08-05T17:33:23.645Z,100948.81
2022-08-05T17:36:08.024Z,100948.03
2022-08-05T17:38:37.440Z,100948.09
2022-08-05T17:41:11.624Z,100940.06
2022-08-05T17:43:55.176Z,100948.03
2022-08-05T17:46:23.912Z,100950.88
2022-08-05T17:48:51.005Z,100950.53
2022-08-05T17:51:21.452Z,100955.84
2022-08-05T17:53:50.736Z,100957.88
2022-08-05T17:56:22.719Z,100961.94
2022-08-05T17:58:51.153Z,100969.19
2022-08-05T18:01:18.949Z,100967.56
2022-08-05T18:03:58.596Z,100972.06
2022-08-05T18:06:31.115Z,100964.88
2022-08-05T18:08:58.698Z,100971.25
2022-08-05T18:11:32.996Z,100970.47
2022-08-05T18:14:03.214Z,100971.69
2022-08-05T18:16:32.246Z,100962.88
2022-08-05T18:18:59.609Z,100954.38
2022-08-05T18:21:28.717Z,100960.28
2022-08-05T18:24:14.479Z,100958.28
2022-08-05T18:26:41.971Z,100959.84
2022-08-05T18:29:11.128Z,100969.78
2022-08-05T18:31:43.126Z,100963.41
2022-08-05T18:34:11.960Z,100969.78
2022-08-05T18:36:41.129Z,100971.00
2022-08-05T18:39:22.361Z,100966.16
2022-08-05T18:42:03.739Z,100959.34
2022-08-05T18:44:51.700Z,100963.41
2022-08-05T18:47:26.634Z,100964.63
2022-08-05T18:50:13.472Z,100965.00
2022-08-05T18:52:51.007Z,100973.84
2022-08-05T18:55:19.995Z,100973.84
2022-08-05T18:57:52.625Z,100970.59
2022-08-05T19:00:27.090Z,100981.00
2022-08-05T19:03:03.671Z,100979.00
2022-08-05T19:06:13.287Z,100978.66
2022-08-05T19:08:19.220Z,100978.69
2022-08-05T19:10:50.512Z,100981.53
2022-08-05T19:13:18.221Z,100989.13
2022-08-05T19:15:58.977Z,100986.25
2022-08-05T19:18:30.577Z,100983.41
2022-08-05T19:20:59.837Z,100986.56
2022-08-05T19:24:06.839Z,100994.59
2022-08-05T19:26:14.871Z,100989.03
2022-08-05T19:28:43.866Z,101000.22
2022-08-05T19:31:18.050Z,100990.66
2022-08-05T19:33:56.886Z,100997.44
2022-08-05T19:36:25.937Z,100999.09
2022-08-05T19:39:01.077Z,101003.06
2022-08-05T19:41:34.648Z,101005.09
2022-08-05T19:44:19.042Z,100999.53
2022-08-05T19:46:46.867Z,101003.53
2022-08-05T19:49:16.929Z,101002.31
2022-08-05T19:52:06.121Z,101006.69
2022-08-05T19:54:37.070Z,101008.38
2022-08-05T19:57:06.395Z,101007.59
2022-08-05T19:59:55.916Z,101007.63
2022-08-05T20:02:25.901Z,101015.22
2022-08-05T20:04:55.001Z,101012.47
2022-08-05T20:07:46.854Z,101012.53
2022-08-05T20:10:13.143Z,101009.38
2022-08-05T20:12:46.208Z,101015.41
2022-08-05T20:15:48.907Z,101002.66
2022-08-05T20:18:10.951Z,100999.91
2022-08-05T20:20:55.149Z,101002.69
2022-08-05T20:23:23.864Z,101004.69
2022-08-05T20:26:16.248Z,100996.72
2022-08-05T20:28:45.868Z,100994.38
2022-08-05T20:31:16.516Z,100995.19
2022-08-05T20:33:45.098Z,100986.00
2022-08-05T20:36:14.295Z,100981.59
2022-08-05T20:38:54.563Z,100985.59
2022-08-05T20:41:44.358Z,100991.94
2022-08-05T20:44:29.857Z,100997.50
2022-08-05T20:47:03.971Z,100983.53
2022-08-05T20:49:37.891Z,100983.16
2022-08-05T20:52:07.320Z,100985.97
2022-08-05T20:54:58.926Z,100982.41
2022-08-05T20:57:24.614Z,100984.06
2022-08-05T21:00:36.397Z,100980.88
2022-08-05T21:03:06.308Z,100986.47
2022-08-05T21:05:48.199Z,100981.66
2022-08-05T21:08:26.816Z,100979.66
2022-08-05T21:11:09.846Z,100977.69
2022-08-05T21:13:48.008Z,100988.81
2022-08-05T21:16:29.793Z,100982.88
2022-08-05T21:19:00.361Z,100980.88
2022-08-05T21:21:44.149Z,100985.25
2022-08-05T21:24:19.564Z,100981.25
2022-08-05T21:26:53.326Z,100992.44
2022-08-05T21:29:26.626Z,100977.66
2022-08-05T21:31:58.908Z,100983.25
2022-08-05T21:34:26.150Z,100990.41
2022-08-05T21:36:55.546Z,100985.63
2022-08-05T21:39:26.897Z,100985.66
2022-08-05T21:42:01.594Z,100982.91
2022-08-05T21:44:31.047Z,100983.25
2022-08-05T21:46:59.695Z,100980.06
2022-08-05T21:50:00.059Z,100973.25
2022-08-05T21:52:16.526Z,100977.28
2022-08-05T21:54:51.890Z,100978.50
2022-08-05T21:57:31.246Z,100982.13
2022-08-05T22:00:11.389Z,100978.19
2022-08-05T22:02:42.931Z,100982.59
2022-08-05T22:05:12.208Z,100981.41
2022-08-05T22:07:58.270Z,100980.63
2022-08-05T22:10:27.578Z,100984.59
2022-08-05T22:12:58.829Z,100977.84
2022-08-05T22:16:00.852Z,100980.22
2022-08-05T22:18:15.149Z,100972.25
2022-08-05T22:20:46.865Z,100973.81
2022-08-05T22:24:02.095Z,100971.44
2022-08-05T22:26:43.342Z,100967.84
2022-08-05T22:29:18.740Z,100969.03
2022-08-05T22:31:55.221Z,100964.28
2022-08-05T22:34:28.729Z,100968.69
2022-08-05T22:36:58.307Z,100959.09
2022-08-05T22:39:31.139Z,100957.88
2022-08-05T22:42:12.287Z,100963.47
2022-08-05T22:44:53.512Z,100961.94
2022-08-05T22:47:30.084Z,100956.38
2022-08-05T22:50:19.630Z,100959.19
2022-08-05T22:52:49.990Z,100955.22
2022-08-05T22:55:21.277Z,100959.66
2022-08-05T22:57:50.458Z,100947.28
2022-08-05T23:00:20.907Z,100937.31
2022-08-05T23:02:49.417Z,100943.72
2022-08-05T23:05:17.469Z,100941.34
2022-08-05T23:07:49.566Z,100940.94
2022-08-05T23:10:19.888Z,100938.97
2022-08-05T23:12:54.273Z,100940.56
2022-08-05T23:15:26.865Z,100942.56
2022-08-05T23:18:00.485Z,100936.59
2022-08-05T23:20:29.130Z,100938.19
2022-08-05T23:22:56.627Z,100933.81
2022-08-05T23:25:53.094Z,100928.63
2022-08-05T23:28:15.872Z,100939.81
2022-08-05T23:30:53.054Z,100940.63
2022-08-05T23:33:25.646Z,100939.41
2022-08-05T23:35:55.831Z,100939.03
2022-08-05T23:38:24.558Z,100943.00
2022-08-05T23:40:52.779Z,100940.63
2022-08-05T23:43:25.554Z,100936.25
2022-08-05T23:46:20.800Z,100937.41
2022-08-05T23:49:00.412Z,100936.25
2022-08-05T23:51:52.655Z,100939.81
2022-08-05T23:54:36.487Z,100924.28
2022-08-05T23:57:06.853Z,100929.47
2022-08-05T23:59:37.668Z,100925.88
